createdAt,value
2023-03-02T00:00:45.232Z,102045.41
2023-03-02T00:03:13.389Z,102040.38
2023-03-02T00:05:40.367Z,102042.91
2023-03-02T00:08:09.213Z,102044.53
2023-03-02T00:10:36.990Z,102039.94
2023-03-02T00:13:03.436Z,102046.69
2023-03-02T00:15:29.840Z,102049.34
2023-03-02T00:17:56.154Z,102050.84
2023-03-02T00:20:22.449Z,102056.97
2023-03-02T00:22:48.765Z,102049.97
2023-03-02T00:25:16.287Z,102057.09
2023-03-02T00:27:42.610Z,102053.69
2023-03-02T00:30:09.984Z,102047.69
2023-03-02T00:32:36.350Z,102047.78
2023-03-02T00:35:02.751Z,102048.78
2023-03-02T00:37:29.057Z,102037.75
2023-03-02T00:39:55.365Z,102039.94
2023-03-02T00:42:21.937Z,102035.34
2023-03-02T00:44:48.275Z,102033.84
2023-03-02T00:47:14.676Z,102028.69
2023-03-02T00:49:40.942Z,102034.47
2023-03-02T00:52:07.247Z,102036.88
2023-03-02T00:54:33.526Z,102031.63
2023-03-02T00:56:59.839Z,102032.50
2023-03-02T00:59:26.225Z,102032.31
2023-03-02T01:01:53.937Z,102030.56
2023-03-02T01:04:20.168Z,102032.19
2023-03-02T01:06:46.491Z,102033.06
2023-03-02T01:09:12.801Z,102027.06
2023-03-02T01:11:39.095Z,102028.34
2023-03-02T01:14:05.450Z,102026.50
2023-03-02T01:16:33.900Z,102027.38
2023-03-02T01:19:00.470Z,102024.31
2023-03-02T01:21:26.804Z,102015.78
2023-03-02T01:23:53.124Z,102017.66
2023-03-02T01:26:19.448Z,102016.66
2023-03-02T01:28:45.738Z,102014.91
2023-03-02T01:31:12.104Z,102005.22
2023-03-02T01:33:38.521Z,102004.75
2023-03-02T01:36:05.240Z,102011.53
2023-03-02T01:38:31.647Z,102006.19
2023-03-02T01:40:58.109Z,102004.22
2023-03-02T01:43:24.449Z,102000.06
2023-03-02T01:45:57.847Z,102000.72
2023-03-02T01:48:31.325Z,102003.13
2023-03-02T01:50:58.452Z,101999.19
2023-03-02T01:53:29.185Z,101996.47
2023-03-02T01:55:57.440Z,101991.53
2023-03-02T01:58:24.290Z,101986.09
2023-03-02T02:00:53.320Z,101989.16
2023-03-02T02:03:26.208Z,101985.97
2023-03-02T02:06:20.495Z,101983.47
2023-03-02T02:08:48.336Z,101972.78
2023-03-02T02:11:14.853Z,101986.31
2023-03-02T02:13:42.149Z,101977.28
2023-03-02T02:16:08.713Z,101983.25
2023-03-02T02:18:39.694Z,101977.34
2023-03-02T02:21:07.665Z,101974.19
2023-03-02T02:23:38.844Z,101979.09
2023-03-02T02:26:13.478Z,101974.19
2023-03-02T02:28:51.996Z,101973.13
2023-03-02T02:31:48.184Z,101974.41
2023-03-02T02:34:21.850Z,101969.63
2023-03-02T02:36:52.779Z,101971.16
2023-03-02T02:39:25.556Z,101971.38
2023-03-02T02:41:56.469Z,101965.91
2023-03-02T02:44:22.833Z,101964.91
2023-03-02T02:46:49.246Z,101968.75
2023-03-02T02:49:23.343Z,101962.84
2023-03-02T02:51:49.626Z,101966.13
2023-03-02T02:54:18.873Z,101963.16
2023-03-02T02:56:46.806Z,101962.97
2023-03-02T02:59:35.193Z,101964.03
2023-03-02T03:02:02.001Z,101962.97
2023-03-02T03:04:31.577Z,101958.47
2023-03-02T03:07:00.897Z,101959.22
2023-03-02T03:09:28.054Z,101962.09
2023-03-02T03:12:17.989Z,101953.13
2023-03-02T03:14:44.842Z,101953.56
2023-03-02T03:17:11.307Z,101959.09
2023-03-02T03:19:47.891Z,101949.50
2023-03-02T03:22:16.034Z,101959.00
2023-03-02T03:24:44.196Z,101957.25
2023-03-02T03:27:13.607Z,101965.28
2023-03-02T03:29:42.777Z,101957.53
2023-03-02T03:32:09.502Z,101956.66
2023-03-02T03:34:36.021Z,101958.84
2023-03-02T03:37:02.327Z,101958.88
2023-03-02T03:39:30.404Z,101958.22
2023-03-02T03:41:56.808Z,101964.53
2023-03-02T03:44:23.464Z,101970.31
2023-03-02T03:46:49.961Z,101956.22
2023-03-02T03:49:16.938Z,101961.88
2023-03-02T03:51:43.608Z,101963.19
2023-03-02T03:54:10.789Z,101964.81
2023-03-02T03:56:41.210Z,101958.19
2023-03-02T03:59:09.967Z,101953.16
2023-03-02T04:01:39.424Z,101945.84
2023-03-02T04:04:09.234Z,101950.66
2023-03-02T04:06:36.073Z,101945.94
2023-03-02T04:09:03.648Z,101947.06
2023-03-02T04:11:40.881Z,101946.63
2023-03-02T04:14:08.465Z,101940.25
2023-03-02T04:16:35.939Z,101938.75
2023-03-02T04:19:03.420Z,101939.63
2023-03-02T04:21:29.860Z,101942.47
2023-03-02T04:23:56.279Z,101937.59
2023-03-02T04:26:22.565Z,101941.75
2023-03-02T04:28:48.880Z,101943.84
2023-03-02T04:31:15.219Z,101947.47
2023-03-02T04:33:41.547Z,101950.94
2023-03-02T04:36:08.201Z,101958.09
2023-03-02T04:38:34.549Z,101954.59
2023-03-02T04:41:00.923Z,101964.63
2023-03-02T04:43:27.276Z,101969.66
2023-03-02T04:45:53.872Z,101970.13
2023-03-02T04:48:21.183Z,101971.19
2023-03-02T04:50:47.545Z,101961.28
2023-03-02T04:53:14.203Z,101965.31
2023-03-02T04:55:40.776Z,101966.94
2023-03-02T04:58:07.240Z,101963.75
2023-03-02T05:00:34.309Z,101963.94
2023-03-02T05:03:04.496Z,101967.69
2023-03-02T05:05:30.892Z,101965.94
2023-03-02T05:07:57.594Z,101967.31
2023-03-02T05:10:24.770Z,101964.38
2023-03-02T05:12:51.394Z,101961.66
2023-03-02T05:15:17.706Z,101957.72
2023-03-02T05:17:44.043Z,101959.69
2023-03-02T05:20:11.855Z,101958.94
2023-03-02T05:22:38.164Z,101960.56
2023-03-02T05:25:05.393Z,101956.66
2023-03-02T05:27:31.727Z,101963.13
2023-03-02T05:29:58.083Z,101959.53
2023-03-02T05:32:24.419Z,101958.47
2023-03-02T05:34:50.795Z,101951.41
2023-03-02T05:37:17.064Z,101948.03
2023-03-02T05:39:43.360Z,101953.16
2023-03-02T05:42:10.210Z,101947.81
2023-03-02T05:44:36.501Z,101949.69
2023-03-02T05:47:02.886Z,101942.91
2023-03-02T05:49:29.243Z,101946.81
2023-03-02T05:51:55.527Z,101951.09
2023-03-02T05:54:21.815Z,101947.06
2023-03-02T05:56:50.223Z,101949.34
2023-03-02T05:59:16.652Z,101945.75
2023-03-02T06:01:42.977Z,101944.31
2023-03-02T06:04:09.290Z,101959.59
2023-03-02T06:06:35.969Z,101957.34
2023-03-02T06:09:02.580Z,101962.22
2023-03-02T06:11:28.886Z,101965.75
2023-03-02T06:13:55.202Z,101968.25
2023-03-02T06:16:22.778Z,101970.88
2023-03-02T06:18:49.018Z,101969.00
2023-03-02T06:21:15.510Z,101973.03
2023-03-02T06:23:41.829Z,101971.06
2023-03-02T06:26:12.283Z,101976.09
2023-03-02T06:28:51.375Z,101973.59
2023-03-02T06:31:18.206Z,101973.06
2023-03-02T06:33:44.571Z,101976.53
2023-03-02T06:36:10.911Z,101978.81
2023-03-02T06:38:37.256Z,101981.94
2023-03-02T06:41:03.649Z,101980.63
2023-03-02T06:43:29.921Z,101992.31
2023-03-02T06:45:56.292Z,101989.78
2023-03-02T06:48:22.594Z,101986.28
2023-03-02T06:50:48.905Z,101991.13
2023-03-02T06:53:15.219Z,101992.09
2023-03-02T06:55:41.483Z,101992.97
2023-03-02T06:58:07.798Z,101993.53
2023-03-02T07:00:34.083Z,101991.50
2023-03-02T07:03:00.386Z,101997.06
2023-03-02T07:05:26.720Z,101999.25
2023-03-02T07:07:53.013Z,101988.22
2023-03-02T07:10:19.469Z,101995.16
2023-03-02T07:12:45.794Z,102000.53
2023-03-02T07:15:12.667Z,102004.03
2023-03-02T07:17:39.632Z,101998.22
2023-03-02T07:20:06.370Z,101999.88
2023-03-02T07:22:33.230Z,102008.16
2023-03-02T07:24:59.830Z,101994.97
2023-03-02T07:27:26.211Z,101994.09
2023-03-02T07:29:52.525Z,101994.97
2023-03-02T07:32:18.906Z,101999.22
2023-03-02T07:34:45.239Z,101993.44
2023-03-02T07:37:11.541Z,101992.47
2023-03-02T07:39:37.850Z,102001.19
2023-03-02T07:42:04.267Z,101998.19
2023-03-02T07:44:30.942Z,101993.06
2023-03-02T07:46:57.375Z,101992.97
2023-03-02T07:49:24.104Z,101988.94
2023-03-02T07:51:50.414Z,101990.56
2023-03-02T07:54:16.901Z,101992.75
2023-03-02T07:56:43.433Z,101995.59
2023-03-02T07:59:11.976Z,101991.88
2023-03-02T08:01:38.461Z,101994.28
2023-03-02T08:04:04.944Z,101998.19
2023-03-02T08:06:31.384Z,101997.66
2023-03-02T08:08:57.908Z,101998.53
2023-03-02T08:11:24.243Z,101991.47
2023-03-02T08:13:50.626Z,101995.38
2023-03-02T08:16:17.101Z,101997.34
2023-03-02T08:18:43.719Z,101997.25
2023-03-02T08:21:15.525Z,101996.38
2023-03-02T08:23:42.232Z,101995.59
2023-03-02T08:26:09.656Z,102001.38
2023-03-02T08:28:36.796Z,101997.56
2023-03-02T08:31:03.924Z,101996.44
2023-03-02T08:33:30.536Z,101995.34
2023-03-02T08:36:08.973Z,101996.91
2023-03-02T08:38:36.082Z,101992.28
2023-03-02T08:41:07.281Z,101987.47
2023-03-02T08:43:34.396Z,101989.84
2023-03-02T08:46:00.821Z,101983.44
2023-03-02T08:48:28.000Z,101990.41
2023-03-02T08:51:14.379Z,101984.63
2023-03-02T08:53:43.296Z,101990.31
2023-03-02T08:56:16.645Z,101984.50
2023-03-02T08:58:42.977Z,101982.84
2023-03-02T09:01:17.794Z,101986.91
2023-03-02T09:03:44.426Z,101980.34
2023-03-02T09:06:10.968Z,101983.63
2023-03-02T09:08:37.832Z,101976.38
2023-03-02T09:11:04.410Z,101969.72
2023-03-02T09:13:31.255Z,101964.13
2023-03-02T09:15:57.612Z,101963.38
2023-03-02T09:18:23.969Z,101960.81
2023-03-02T09:20:51.987Z,101965.09
2023-03-02T09:23:19.339Z,101959.13
2023-03-02T09:25:46.436Z,101950.44
2023-03-02T09:28:12.836Z,101951.38
2023-03-02T09:30:39.167Z,101951.44
2023-03-02T09:33:05.540Z,101949.69
2023-03-02T09:35:32.152Z,101950.06
2023-03-02T09:37:58.584Z,101955.97
2023-03-02T09:40:27.733Z,101960.06
2023-03-02T09:43:24.060Z,101959.97
2023-03-02T09:45:58.289Z,101952.69
2023-03-02T09:48:59.619Z,101955.66
2023-03-02T09:52:07.067Z,101959.16
2023-03-02T09:54:34.959Z,101965.22
2023-03-02T09:57:01.852Z,101961.03
2023-03-02T09:59:33.089Z,101967.91
2023-03-02T10:02:24.256Z,101961.16
2023-03-02T10:04:54.040Z,101958.84
2023-03-02T10:07:24.261Z,101956.53
2023-03-02T10:09:50.648Z,101961.28
2023-03-02T10:12:35.671Z,101962.06
2023-03-02T10:15:14.881Z,101961.28
2023-03-02T10:18:03.819Z,101968.47
2023-03-02T10:20:36.433Z,101962.53
2023-03-02T10:23:22.985Z,101957.03
2023-03-02T10:26:09.771Z,101961.94
2023-03-02T10:28:48.316Z,101957.41
2023-03-02T10:31:29.480Z,101955.28
2023-03-02T10:33:56.659Z,101956.91
2023-03-02T10:36:31.082Z,101959.66
2023-03-02T10:38:58.344Z,101962.94
2023-03-02T10:41:34.084Z,101957.78
2023-03-02T10:44:15.274Z,101954.41
2023-03-02T10:46:43.843Z,101952.66
2023-03-02T10:49:27.195Z,101960.41
2023-03-02T10:52:04.765Z,101959.66
2023-03-02T10:54:33.571Z,101954.09
2023-03-02T10:57:02.786Z,101958.09
2023-03-02T10:59:42.590Z,101953.53
2023-03-02T11:02:15.030Z,101952.84
2023-03-02T11:04:41.925Z,101952.34
2023-03-02T11:07:17.823Z,101942.72
2023-03-02T11:10:21.572Z,101941.38
2023-03-02T11:12:51.017Z,101929.53
2023-03-02T11:15:23.089Z,101925.03
2023-03-02T11:18:20.681Z,101921.97
2023-03-02T11:20:52.610Z,101924.94
2023-03-02T11:23:36.208Z,101925.47
2023-03-02T11:26:20.558Z,101923.56
2023-03-02T11:29:14.355Z,101924.41
2023-03-02T11:31:43.462Z,101923.09
2023-03-02T11:34:20.577Z,101923.44
2023-03-02T11:36:58.767Z,101927.44
2023-03-02T11:39:50.048Z,101914.03
2023-03-02T11:42:33.320Z,101912.66
2023-03-02T11:45:16.501Z,101912.66
2023-03-02T11:48:02.027Z,101919.25
2023-03-02T11:50:31.392Z,101917.75
2023-03-02T11:53:01.278Z,101911.78
2023-03-02T11:55:29.195Z,101906.47
2023-03-02T12:00:36.815Z,101906.53
2023-03-02T12:03:07.311Z,101915.41
2023-03-02T12:05:37.393Z,101899.22
2023-03-02T12:08:26.717Z,101904.09
2023-03-02T12:11:16.015Z,101902.22
2023-03-02T12:13:44.117Z,101897.06
2023-03-02T12:16:36.323Z,101894.88
2023-03-02T12:19:13.445Z,101891.47
2023-03-02T12:21:44.197Z,101898.38
2023-03-02T12:24:41.279Z,101888.81
2023-03-02T12:27:10.293Z,101882.84
2023-03-02T12:29:41.338Z,101878.75
2023-03-02T12:32:22.935Z,101873.88
2023-03-02T12:35:07.414Z,101869.13
2023-03-02T12:37:47.647Z,101873.38
2023-03-02T12:40:38.567Z,101870.59
2023-03-02T12:43:19.256Z,101868.47
2023-03-02T12:45:48.613Z,101861.25
2023-03-02T12:48:27.943Z,101854.06
2023-03-02T12:51:00.529Z,101854.53
2023-03-02T12:53:28.090Z,101848.44
2023-03-02T12:55:54.416Z,101842.84
2023-03-02T12:58:28.266Z,101847.50
2023-03-02T13:00:57.847Z,101845.03
2023-03-02T13:03:26.024Z,101847.09
2023-03-02T13:06:01.400Z,101853.66
2023-03-02T13:08:29.371Z,101845.19
2023-03-02T13:11:01.232Z,101840.16
2023-03-02T13:13:27.571Z,101843.63
2023-03-02T13:15:58.968Z,101840.78
2023-03-02T13:18:29.409Z,101835.09
2023-03-02T13:20:55.850Z,101842.94
2023-03-02T13:23:22.284Z,101834.47
2023-03-02T13:25:54.794Z,101841.59
2023-03-02T13:28:27.169Z,101835.56
2023-03-02T13:31:04.923Z,101839.59
2023-03-02T13:33:33.740Z,101836.75
2023-03-02T13:36:00.376Z,101834.47
2023-03-02T13:38:49.339Z,101831.13
2023-03-02T13:41:23.868Z,101830.59
2023-03-02T13:43:50.259Z,101824.66
2023-03-02T13:46:16.497Z,101816.13
2023-03-02T13:49:09.207Z,101813.28
2023-03-02T13:51:39.982Z,101815.44
2023-03-02T13:54:16.611Z,101814.00
2023-03-02T13:56:43.958Z,101798.91
2023-03-02T13:59:15.047Z,101809.31
2023-03-02T14:01:41.824Z,101802.88
2023-03-02T14:04:12.148Z,101804.03
2023-03-02T14:06:38.484Z,101803.09
2023-03-02T14:09:05.203Z,101798.81
2023-03-02T14:11:41.071Z,101792.63
2023-03-02T14:14:12.229Z,101791.19
2023-03-02T14:16:38.531Z,101796.81
2023-03-02T14:19:04.823Z,101797.31
2023-03-02T14:21:31.591Z,101789.88
2023-03-02T14:23:58.343Z,101787.09
2023-03-02T14:26:35.435Z,101781.66
2023-03-02T14:29:19.555Z,101782.09
2023-03-02T14:31:45.904Z,101774.06
2023-03-02T14:34:13.680Z,101770.81
2023-03-02T14:36:41.379Z,101765.66
2023-03-02T14:39:20.128Z,101763.59
2023-03-02T14:41:53.282Z,101758.66
2023-03-02T14:44:20.526Z,101755.53
2023-03-02T14:46:46.844Z,101752.53
2023-03-02T14:49:13.169Z,101749.84
2023-03-02T14:51:41.440Z,101748.56
2023-03-02T14:54:14.221Z,101740.81
2023-03-02T14:56:41.379Z,101752.63
2023-03-02T14:59:13.104Z,101738.19
2023-03-02T15:01:40.261Z,101741.31
2023-03-02T15:04:06.612Z,101741.78
2023-03-02T15:06:37.441Z,101743.78
2023-03-02T15:09:03.841Z,101739.91
2023-03-02T15:11:30.968Z,101740.63
2023-03-02T15:13:57.545Z,101739.25
2023-03-02T15:16:23.984Z,101734.75
2023-03-02T15:18:52.399Z,101745.72
2023-03-02T15:21:24.148Z,101737.03
2023-03-02T15:23:51.045Z,101745.53
2023-03-02T15:26:17.651Z,101743.38
2023-03-02T15:28:43.949Z,101741.63
2023-03-02T15:31:13.166Z,101745.91
2023-03-02T15:33:40.172Z,101739.09
2023-03-02T15:36:07.392Z,101739.47
2023-03-02T15:38:35.147Z,101738.88
2023-03-02T15:41:06.870Z,101742.75
2023-03-02T15:43:33.704Z,101744.00
2023-03-02T15:46:00.037Z,101732.81
2023-03-02T15:48:27.341Z,101737.47
2023-03-02T15:51:01.219Z,101739.75
2023-03-02T15:53:29.085Z,101731.44
2023-03-02T15:55:55.916Z,101735.47
2023-03-02T15:58:22.828Z,101731.53
2023-03-02T16:00:49.872Z,101731.03
2023-03-02T16:03:17.028Z,101738.50
2023-03-02T16:05:43.380Z,101733.91
2023-03-02T16:08:09.670Z,101725.38
2023-03-02T16:10:36.072Z,101724.16
2023-03-02T16:13:04.182Z,101725.00
2023-03-02T16:15:31.363Z,101714.94
2023-03-02T16:17:57.658Z,101718.50
2023-03-02T16:20:23.965Z,101723.81
2023-03-02T16:22:50.247Z,101721.09
2023-03-02T16:25:16.562Z,101717.03
2023-03-02T16:27:42.852Z,101710.28
2023-03-02T16:30:09.856Z,101707.59
2023-03-02T16:32:36.180Z,101721.84
2023-03-02T16:35:02.498Z,101724.63
2023-03-02T16:37:28.874Z,101719.25
2023-03-02T16:39:55.266Z,101720.72
2023-03-02T16:42:21.550Z,101727.84
2023-03-02T16:44:49.789Z,101727.59
2023-03-02T16:47:16.111Z,101722.19
2023-03-02T16:49:42.432Z,101720.19
2023-03-02T16:52:08.757Z,101714.47
2023-03-02T16:54:35.376Z,101719.03
2023-03-02T16:57:01.676Z,101722.31
2023-03-02T16:59:27.968Z,101729.09
2023-03-02T17:01:54.284Z,101733.38
2023-03-02T17:04:20.625Z,101725.34
2023-03-02T17:06:59.732Z,101734.28
2023-03-02T17:09:27.029Z,101738.44
2023-03-02T17:11:53.331Z,101737.31
2023-03-02T17:14:19.621Z,101732.38
2023-03-02T17:16:45.955Z,101734.13
2023-03-02T17:19:12.269Z,101735.88
2023-03-02T17:21:38.821Z,101738.44
2023-03-02T17:24:05.254Z,101743.25
2023-03-02T17:26:31.554Z,101743.38
2023-03-02T17:28:57.840Z,101729.53
2023-03-02T17:31:24.232Z,101736.69
2023-03-02T17:33:50.592Z,101737.22
2023-03-02T17:36:16.952Z,101739.28
2023-03-02T17:38:43.294Z,101737.44
2023-03-02T17:41:11.359Z,101746.94
2023-03-02T17:43:39.577Z,101741.13
2023-03-02T17:46:12.084Z,101733.56
2023-03-02T17:48:38.674Z,101744.31
2023-03-02T17:51:05.317Z,101748.06
2023-03-02T17:53:31.678Z,101748.50
2023-03-02T17:55:57.979Z,101753.00
2023-03-02T17:58:26.717Z,101753.63
2023-03-02T18:00:54.832Z,101758.16
2023-03-02T18:03:21.264Z,101755.28
2023-03-02T18:05:47.626Z,101759.16
2023-03-02T18:08:13.971Z,101760.97
2023-03-02T18:10:40.281Z,101765.75
2023-03-02T18:13:06.604Z,101763.63
2023-03-02T18:15:33.241Z,101774.25
2023-03-02T18:17:59.655Z,101770.03
2023-03-02T18:20:26.039Z,101770.69
2023-03-02T18:22:52.504Z,101771.06
2023-03-02T18:25:18.796Z,101770.69
2023-03-02T18:27:45.213Z,101773.59
2023-03-02T18:30:12.887Z,101775.53
2023-03-02T18:32:39.222Z,101768.28
2023-03-02T18:35:06.000Z,101774.56
2023-03-02T18:37:32.334Z,101765.56
2023-03-02T18:39:58.633Z,101766.53
2023-03-02T18:42:24.931Z,101768.19
2023-03-02T18:44:51.239Z,101761.28
2023-03-02T18:47:17.707Z,101773.09
2023-03-02T18:49:46.006Z,101765.38
2023-03-02T18:52:12.304Z,101764.69
2023-03-02T18:54:39.246Z,101767.91
2023-03-02T18:57:05.712Z,101765.75
2023-03-02T18:59:32.037Z,101763.44
2023-03-02T19:01:58.404Z,101766.72
2023-03-02T19:04:24.868Z,101770.97
2023-03-02T19:06:51.182Z,101757.53
2023-03-02T19:09:17.495Z,101762.00
2023-03-02T19:11:43.928Z,101754.91
2023-03-02T19:14:10.200Z,101753.94
2023-03-02T19:16:36.576Z,101759.06
2023-03-02T19:19:02.933Z,101755.59
2023-03-02T19:21:29.311Z,101756.00
2023-03-02T19:23:55.665Z,101759.94
2023-03-02T19:26:21.985Z,101759.38
2023-03-02T19:28:48.457Z,101750.47
2023-03-02T19:31:15.638Z,101754.44
2023-03-02T19:33:42.588Z,101753.94
2023-03-02T19:36:09.372Z,101752.22
2023-03-02T19:38:35.732Z,101751.75
2023-03-02T19:41:02.134Z,101755.31
2023-03-02T19:43:28.714Z,101757.16
2023-03-02T19:45:55.405Z,101761.50
2023-03-02T19:48:21.864Z,101762.56
2023-03-02T19:50:48.233Z,101752.03
2023-03-02T19:53:14.842Z,101756.88
2023-03-02T19:55:41.159Z,101761.91
2023-03-02T19:58:07.472Z,101763.66
2023-03-02T20:00:33.972Z,101763.81
2023-03-02T20:03:00.371Z,101758.78
2023-03-02T20:05:27.333Z,101771.75
2023-03-02T20:07:54.081Z,101772.44
2023-03-02T20:10:30.963Z,101767.59
2023-03-02T20:12:57.688Z,101776.78
2023-03-02T20:15:23.976Z,101782.22
2023-03-02T20:17:50.286Z,101774.28
2023-03-02T20:20:16.654Z,101774.28
2023-03-02T20:22:42.961Z,101775.44
2023-03-02T20:25:09.439Z,101777.97
2023-03-02T20:27:35.735Z,101778.75
2023-03-02T20:30:02.226Z,101786.66
2023-03-02T20:32:28.667Z,101789.84
2023-03-02T20:34:55.013Z,101789.69
2023-03-02T20:37:21.303Z,101783.47
2023-03-02T20:39:47.612Z,101795.75
2023-03-02T20:42:13.910Z,101785.88
2023-03-02T20:44:40.518Z,101795.50
2023-03-02T20:47:09.731Z,101795.75
2023-03-02T20:49:37.465Z,101793.44
2023-03-02T20:52:03.862Z,101793.03
2023-03-02T20:54:34.083Z,101789.38
2023-03-02T20:57:00.479Z,101794.41
2023-03-02T20:59:27.564Z,101796.16
2023-03-02T21:01:53.939Z,101793.06
2023-03-02T21:04:20.964Z,101788.78
2023-03-02T21:06:47.300Z,101795.56
2023-03-02T21:09:14.059Z,101787.34
2023-03-02T21:11:40.921Z,101785.41
2023-03-02T21:14:07.396Z,101791.00
2023-03-02T21:16:38.087Z,101790.34
2023-03-02T21:19:07.872Z,101783.56
2023-03-02T21:21:41.526Z,101786.16
2023-03-02T21:24:10.482Z,101775.72
2023-03-02T21:26:37.282Z,101785.50
2023-03-02T21:29:04.693Z,101778.16
2023-03-02T21:31:31.016Z,101784.44
2023-03-02T21:33:57.346Z,101784.16
2023-03-02T21:36:24.367Z,101785.19
2023-03-02T21:38:51.909Z,101784.06
2023-03-02T21:41:19.146Z,101784.13
2023-03-02T21:43:45.484Z,101782.59
2023-03-02T21:46:18.474Z,101780.88
2023-03-02T21:48:45.630Z,101779.28
2023-03-02T21:51:13.230Z,101774.56
2023-03-02T21:53:39.441Z,101769.84
2023-03-02T21:56:06.205Z,101773.13
2023-03-02T21:58:32.511Z,101781.44
2023-03-02T22:00:58.809Z,101771.19
2023-03-02T22:03:26.437Z,101778.34
2023-03-02T22:05:52.719Z,101774.38
2023-03-02T22:08:20.409Z,101779.69
2023-03-02T22:10:49.123Z,101767.03
2023-03-02T22:13:31.972Z,101764.19
2023-03-02T22:16:04.464Z,101762.88
2023-03-02T22:18:31.319Z,101761.31
2023-03-02T22:20:57.793Z,101764.50
2023-03-02T22:23:26.274Z,101762.47
2023-03-02T22:25:55.725Z,101766.44
2023-03-02T22:28:24.741Z,101768.84
2023-03-02T22:30:52.748Z,101764.19
2023-03-02T22:33:24.787Z,101763.53
2023-03-02T22:36:02.936Z,101755.31
2023-03-02T22:38:30.787Z,101756.47
2023-03-02T22:40:57.259Z,101751.16
2023-03-02T22:43:31.610Z,101738.06
2023-03-02T22:46:19.614Z,101738.59
2023-03-02T22:48:51.413Z,101732.06
2023-03-02T22:51:20.245Z,101735.97
2023-03-02T22:53:49.522Z,101744.75
2023-03-02T22:56:26.669Z,101742.75
2023-03-02T22:58:53.241Z,101739.81
2023-03-02T23:01:38.111Z,101740.91
2023-03-02T23:04:22.623Z,101735.00
2023-03-02T23:06:52.030Z,101722.81
2023-03-02T23:09:24.924Z,101722.97
2023-03-02T23:11:57.647Z,101710.50
2023-03-02T23:14:27.971Z,101712.16
2023-03-02T23:16:58.985Z,101713.41
2023-03-02T23:19:27.623Z,101713.31
2023-03-02T23:21:54.945Z,101715.72
2023-03-02T23:24:21.496Z,101709.53
2023-03-02T23:26:52.112Z,101703.56
2023-03-02T23:29:19.510Z,101697.16
2023-03-02T23:31:46.184Z,101697.75
2023-03-02T23:34:13.354Z,101708.84
2023-03-02T23:36:40.279Z,101714.09
2023-03-02T23:39:08.551Z,101710.81
2023-03-02T23:41:36.636Z,101717.78
2023-03-02T23:44:03.465Z,101717.69
2023-03-02T23:46:29.829Z,101721.25
2023-03-02T23:48:56.377Z,101725.91
2023-03-02T23:51:26.241Z,101722.41
2023-03-02T23:53:53.786Z,101731.44
2023-03-02T23:56:20.617Z,101727.66
2023-03-02T23:58:46.945Z,101746.22
